sensor_id;sensor_type;location;lat;lon;timestamp;P1;durP1;ratioP1;P2;durP2;ratioP2
49728;SDS011;66333;49.798;10.968;2024-01-30T00:00:23;6.73;;;4.03;;
49728;SDS011;66333;49.798;10.968;2024-01-30T00:03:12;7.83;;;4.30;;
49728;SDS011;66333;49.798;10.968;2024-01-30T00:05:42;6.63;;;3.97;;
49728;SDS011;66333;49.798;10.968;2024-01-30T00:08:11;6.13;;;3.40;;
49728;SDS011;66333;49.798;10.968;2024-01-30T00:10:38;6.83;;;3.80;;
49728;SDS011;66333;49.798;10.968;2024-01-30T00:13:09;6.47;;;4.00;;
49728;SDS011;66333;49.798;10.968;2024-01-30T00:15:46;7.17;;;4.00;;
49728;SDS011;66333;49.798;10.968;2024-01-30T00:18:21;6.40;;;3.70;;
49728;SDS011;66333;49.798;10.968;2024-01-30T00:20:56;6.87;;;3.83;;
49728;SDS011;66333;49.798;10.968;2024-01-30T00:23:29;6.23;;;3.73;;
49728;SDS011;66333;49.798;10.968;2024-01-30T00:25:56;6.53;;;4.03;;
49728;SDS011;66333;49.798;10.968;2024-01-30T00:28:26;6.30;;;3.83;;
49728;SDS011;66333;49.798;10.968;2024-01-30T00:30:54;7.67;;;4.23;;
49728;SDS011;66333;49.798;10.968;2024-01-30T00:33:38;6.20;;;3.77;;
49728;SDS011;66333;49.798;10.968;2024-01-30T00:36:09;7.27;;;4.00;;
49728;SDS011;66333;49.798;10.968;2024-01-30T00:38:39;6.53;;;3.77;;
49728;SDS011;66333;49.798;10.968;2024-01-30T00:41:08;6.13;;;3.83;;
49728;SDS011;66333;49.798;10.968;2024-01-30T00:43:38;6.13;;;3.63;;
49728;SDS011;66333;49.798;10.968;2024-01-30T00:46:08;6.30;;;3.83;;
49728;SDS011;66333;49.798;10.968;2024-01-30T00:48:50;6.27;;;3.87;;
49728;SDS011;66333;49.798;10.968;2024-01-30T00:51:23;6.20;;;3.50;;
49728;SDS011;66333;49.798;10.968;2024-01-30T00:53:55;7.40;;;4.37;;
49728;SDS011;66333;49.798;10.968;2024-01-30T00:56:24;7.03;;;4.00;;
49728;SDS011;66333;49.798;10.968;2024-01-30T00:58:54;6.67;;;4.23;;
49728;SDS011;66333;49.798;10.968;2024-01-30T01:01:21;6.93;;;4.23;;
49728;SDS011;66333;49.798;10.968;2024-01-30T01:03:54;7.27;;;3.83;;
49728;SDS011;66333;49.798;10.968;2024-01-30T01:06:25;6.97;;;4.07;;
49728;SDS011;66333;49.798;10.968;2024-01-30T01:08:57;6.67;;;4.03;;
49728;SDS011;66333;49.798;10.968;2024-01-30T01:11:26;6.83;;;3.90;;
49728;SDS011;66333;49.798;10.968;2024-01-30T01:13:58;7.60;;;4.50;;
49728;SDS011;66333;49.798;10.968;2024-01-30T01:16:25;7.20;;;4.10;;
49728;SDS011;66333;49.798;10.968;2024-01-30T01:18:56;7.00;;;4.10;;
49728;SDS011;66333;49.798;10.968;2024-01-30T01:21:22;7.10;;;4.10;;
49728;SDS011;66333;49.798;10.968;2024-01-30T01:23:52;7.77;;;4.00;;
49728;SDS011;66333;49.798;10.968;2024-01-30T01:26:22;7.50;;;4.20;;
49728;SDS011;66333;49.798;10.968;2024-01-30T01:28:48;6.97;;;4.30;;
49728;SDS011;66333;49.798;10.968;2024-01-30T01:31:18;7.50;;;4.43;;
49728;SDS011;66333;49.798;10.968;2024-01-30T01:34:07;8.57;;;4.40;;
49728;SDS011;66333;49.798;10.968;2024-01-30T01:36:41;7.97;;;4.50;;
49728;SDS011;66333;49.798;10.968;2024-01-30T01:39:13;7.37;;;4.53;;
49728;SDS011;66333;49.798;10.968;2024-01-30T01:41:41;7.63;;;4.40;;
49728;SDS011;66333;49.798;10.968;2024-01-30T01:44:11;7.70;;;4.50;;
49728;SDS011;66333;49.798;10.968;2024-01-30T01:46:41;7.83;;;4.60;;
49728;SDS011;66333;49.798;10.968;2024-01-30T01:49:12;8.40;;;4.30;;
49728;SDS011;66333;49.798;10.968;2024-01-30T01:51:47;7.97;;;4.57;;
49728;SDS011;66333;49.798;10.968;2024-01-30T01:54:24;8.50;;;4.50;;
49728;SDS011;66333;49.798;10.968;2024-01-30T01:56:54;7.30;;;4.10;;
49728;SDS011;66333;49.798;10.968;2024-01-30T01:59:26;6.50;;;4.27;;
49728;SDS011;66333;49.798;10.968;2024-01-30T02:02:03;7.73;;;4.47;;
49728;SDS011;66333;49.798;10.968;2024-01-30T02:04:41;7.60;;;3.97;;
49728;SDS011;66333;49.798;10.968;2024-01-30T02:07:13;7.33;;;4.67;;
49728;SDS011;66333;49.798;10.968;2024-01-30T02:09:43;7.60;;;4.50;;
49728;SDS011;66333;49.798;10.968;2024-01-30T02:12:13;6.80;;;4.23;;
49728;SDS011;66333;49.798;10.968;2024-01-30T02:14:44;6.83;;;3.80;;
49728;SDS011;66333;49.798;10.968;2024-01-30T02:17:16;7.47;;;4.37;;
49728;SDS011;66333;49.798;10.968;2024-01-30T02:19:53;7.03;;;4.10;;
49728;SDS011;66333;49.798;10.968;2024-01-30T02:22:41;7.50;;;4.07;;
49728;SDS011;66333;49.798;10.968;2024-01-30T02:25:13;7.33;;;4.23;;
49728;SDS011;66333;49.798;10.968;2024-01-30T02:27:44;8.27;;;4.77;;
49728;SDS011;66333;49.798;10.968;2024-01-30T02:30:14;7.27;;;4.40;;
49728;SDS011;66333;49.798;10.968;2024-01-30T02:32:44;7.33;;;4.30;;
49728;SDS011;66333;49.798;10.968;2024-01-30T02:35:12;7.40;;;4.30;;
49728;SDS011;66333;49.798;10.968;2024-01-30T02:37:45;7.57;;;4.23;;
49728;SDS011;66333;49.798;10.968;2024-01-30T02:40:20;7.97;;;4.53;;
49728;SDS011;66333;49.798;10.968;2024-01-30T02:42:53;6.87;;;4.00;;
49728;SDS011;66333;49.798;10.968;2024-01-30T02:45:22;7.63;;;4.40;;
49728;SDS011;66333;49.798;10.968;2024-01-30T02:47:50;7.47;;;4.50;;
49728;SDS011;66333;49.798;10.968;2024-01-30T02:50:24;6.53;;;3.93;;
49728;SDS011;66333;49.798;10.968;2024-01-30T02:52:59;5.57;;;3.70;;
49728;SDS011;66333;49.798;10.968;2024-01-30T02:55:30;8.07;;;4.50;;
49728;SDS011;66333;49.798;10.968;2024-01-30T02:57:58;7.37;;;4.17;;
49728;SDS011;66333;49.798;10.968;2024-01-30T03:00:26;7.60;;;4.43;;
49728;SDS011;66333;49.798;10.968;2024-01-30T03:03:00;7.30;;;4.00;;
49728;SDS011;66333;49.798;10.968;2024-01-30T03:05:29;7.53;;;4.40;;
49728;SDS011;66333;49.798;10.968;2024-01-30T03:08:00;6.83;;;4.07;;
49728;SDS011;66333;49.798;10.968;2024-01-30T03:10:34;6.77;;;3.80;;
49728;SDS011;66333;49.798;10.968;2024-01-30T03:13:03;7.87;;;4.43;;
49728;SDS011;66333;49.798;10.968;2024-01-30T03:15:31;7.60;;;4.27;;
49728;SDS011;66333;49.798;10.968;2024-01-30T03:17:59;7.93;;;4.33;;
49728;SDS011;66333;49.798;10.968;2024-01-30T03:20:28;6.97;;;4.13;;
49728;SDS011;66333;49.798;10.968;2024-01-30T03:23:01;6.77;;;4.00;;
49728;SDS011;66333;49.798;10.968;2024-01-30T03:25:29;7.33;;;3.87;;
49728;SDS011;66333;49.798;10.968;2024-01-30T03:27:59;8.03;;;4.50;;
49728;SDS011;66333;49.798;10.968;2024-01-30T03:30:29;7.37;;;4.17;;
49728;SDS011;66333;49.798;10.968;2024-01-30T03:32:58;7.33;;;4.07;;
49728;SDS011;66333;49.798;10.968;2024-01-30T03:35:33;6.43;;;3.67;;
49728;SDS011;66333;49.798;10.968;2024-01-30T03:38:20;7.87;;;4.60;;
49728;SDS011;66333;49.798;10.968;2024-01-30T03:40:51;7.40;;;4.27;;
49728;SDS011;66333;49.798;10.968;2024-01-30T03:43:33;6.63;;;3.90;;
49728;SDS011;66333;49.798;10.968;2024-01-30T03:46:03;6.90;;;4.17;;
49728;SDS011;66333;49.798;10.968;2024-01-30T03:48:34;6.57;;;4.30;;
49728;SDS011;66333;49.798;10.968;2024-01-30T03:51:04;7.47;;;4.23;;
49728;SDS011;66333;49.798;10.968;2024-01-30T03:53:38;6.90;;;4.00;;
49728;SDS011;66333;49.798;10.968;2024-01-30T03:56:07;7.75;;;4.60;;
49728;SDS011;66333;49.798;10.968;2024-01-30T03:58:39;7.67;;;4.43;;
49728;SDS011;66333;49.798;10.968;2024-01-30T04:01:07;7.77;;;4.50;;
49728;SDS011;66333;49.798;10.968;2024-01-30T04:03:42;7.00;;;4.53;;
49728;SDS011;66333;49.798;10.968;2024-01-30T04:06:13;7.33;;;4.40;;
49728;SDS011;66333;49.798;10.968;2024-01-30T04:08:44;7.53;;;4.13;;
49728;SDS011;66333;49.798;10.968;2024-01-30T04:11:18;6.77;;;4.30;;
49728;SDS011;66333;49.798;10.968;2024-01-30T04:13:47;7.80;;;4.70;;
49728;SDS011;66333;49.798;10.968;2024-01-30T04:16:20;6.90;;;4.00;;
49728;SDS011;66333;49.798;10.968;2024-01-30T04:18:48;7.90;;;4.40;;
49728;SDS011;66333;49.798;10.968;2024-01-30T04:21:16;8.70;;;4.87;;
49728;SDS011;66333;49.798;10.968;2024-01-30T04:23:54;7.20;;;4.40;;
49728;SDS011;66333;49.798;10.968;2024-01-30T04:26:23;7.90;;;4.73;;
49728;SDS011;66333;49.798;10.968;2024-01-30T04:28:50;7.17;;;4.47;;
49728;SDS011;66333;49.798;10.968;2024-01-30T04:31:18;7.73;;;4.43;;
49728;SDS011;66333;49.798;10.968;2024-01-30T04:33:48;7.80;;;4.23;;
49728;SDS011;66333;49.798;10.968;2024-01-30T04:36:18;7.37;;;3.80;;
49728;SDS011;66333;49.798;10.968;2024-01-30T04:39:06;6.97;;;4.20;;
49728;SDS011;66333;49.798;10.968;2024-01-30T04:41:36;7.73;;;4.03;;
49728;SDS011;66333;49.798;10.968;2024-01-30T04:44:06;8.50;;;4.60;;
49728;SDS011;66333;49.798;10.968;2024-01-30T04:46:36;7.23;;;4.33;;
49728;SDS011;66333;49.798;10.968;2024-01-30T04:49:06;8.53;;;4.40;;
49728;SDS011;66333;49.798;10.968;2024-01-30T04:51:37;7.80;;;4.53;;
49728;SDS011;66333;49.798;10.968;2024-01-30T04:54:20;9.47;;;4.87;;
49728;SDS011;66333;49.798;10.968;2024-01-30T04:56:49;7.30;;;4.47;;
49728;SDS011;66333;49.798;10.968;2024-01-30T04:59:19;6.37;;;3.90;;
49728;SDS011;66333;49.798;10.968;2024-01-30T05:01:49;7.00;;;4.03;;
49728;SDS011;66333;49.798;10.968;2024-01-30T05:04:17;7.13;;;4.10;;
49728;SDS011;66333;49.798;10.968;2024-01-30T05:06:48;7.43;;;4.43;;
49728;SDS011;66333;49.798;10.968;2024-01-30T05:09:32;6.87;;;4.37;;
49728;SDS011;66333;49.798;10.968;2024-01-30T05:11:59;7.03;;;4.47;;
49728;SDS011;66333;49.798;10.968;2024-01-30T05:14:30;8.20;;;4.43;;
49728;SDS011;66333;49.798;10.968;2024-01-30T05:17:06;7.50;;;3.97;;
49728;SDS011;66333;49.798;10.968;2024-01-30T05:19:36;7.10;;;4.40;;
49728;SDS011;66333;49.798;10.968;2024-01-30T05:22:04;7.23;;;3.83;;
49728;SDS011;66333;49.798;10.968;2024-01-30T05:24:35;7.20;;;4.10;;
49728;SDS011;66333;49.798;10.968;2024-01-30T05:27:03;7.73;;;4.50;;
49728;SDS011;66333;49.798;10.968;2024-01-30T05:29:38;8.70;;;4.73;;
49728;SDS011;66333;49.798;10.968;2024-01-30T05:32:07;7.73;;;4.17;;
49728;SDS011;66333;49.798;10.968;2024-01-30T05:34:36;8.40;;;3.90;;
49728;SDS011;66333;49.798;10.968;2024-01-30T05:37:07;7.13;;;4.03;;
49728;SDS011;66333;49.798;10.968;2024-01-30T05:39:49;6.27;;;3.93;;
49728;SDS011;66333;49.798;10.968;2024-01-30T05:42:19;6.63;;;3.87;;
49728;SDS011;66333;49.798;10.968;2024-01-30T05:44:50;8.00;;;4.37;;
49728;SDS011;66333;49.798;10.968;2024-01-30T05:47:18;7.70;;;3.97;;
49728;SDS011;66333;49.798;10.968;2024-01-30T05:49:50;7.17;;;3.87;;
49728;SDS011;66333;49.798;10.968;2024-01-30T05:52:20;7.20;;;3.93;;
49728;SDS011;66333;49.798;10.968;2024-01-30T05:55:04;6.70;;;3.90;;
49728;SDS011;66333;49.798;10.968;2024-01-30T05:57:38;6.33;;;3.73;;
49728;SDS011;66333;49.798;10.968;2024-01-30T06:00:08;6.97;;;4.13;;
49728;SDS011;66333;49.798;10.968;2024-01-30T06:02:45;11.00;;;5.67;;
49728;SDS011;66333;49.798;10.968;2024-01-30T06:05:13;9.20;;;5.20;;
49728;SDS011;66333;49.798;10.968;2024-01-30T06:07:42;11.70;;;4.83;;
49728;SDS011;66333;49.798;10.968;2024-01-30T06:10:12;7.87;;;4.77;;
49728;SDS011;66333;49.798;10.968;2024-01-30T06:12:46;9.50;;;4.70;;
49728;SDS011;66333;49.798;10.968;2024-01-30T06:15:15;9.50;;;4.63;;
49728;SDS011;66333;49.798;10.968;2024-01-30T06:17:52;9.57;;;4.70;;
49728;SDS011;66333;49.798;10.968;2024-01-30T06:20:23;8.27;;;4.30;;
49728;SDS011;66333;49.798;10.968;2024-01-30T06:22:51;8.20;;;3.90;;
49728;SDS011;66333;49.798;10.968;2024-01-30T06:25:31;7.50;;;4.37;;
49728;SDS011;66333;49.798;10.968;2024-01-30T06:27:58;9.20;;;4.50;;
49728;SDS011;66333;49.798;10.968;2024-01-30T06:30:28;8.73;;;4.50;;
49728;SDS011;66333;49.798;10.968;2024-01-30T06:32:55;8.67;;;4.73;;
49728;SDS011;66333;49.798;10.968;2024-01-30T06:35:30;10.48;;;4.68;;
49728;SDS011;66333;49.798;10.968;2024-01-30T06:38:02;10.00;;;4.70;;
49728;SDS011;66333;49.798;10.968;2024-01-30T06:40:45;8.30;;;4.40;;
49728;SDS011;66333;49.798;10.968;2024-01-30T06:43:15;8.90;;;4.63;;
49728;SDS011;66333;49.798;10.968;2024-01-30T06:45:45;8.30;;;4.63;;
49728;SDS011;66333;49.798;10.968;2024-01-30T06:48:15;9.17;;;4.83;;
49728;SDS011;66333;49.798;10.968;2024-01-30T06:50:57;8.57;;;4.77;;
49728;SDS011;66333;49.798;10.968;2024-01-30T06:53:34;7.60;;;4.20;;
49728;SDS011;66333;49.798;10.968;2024-01-30T06:56:09;7.90;;;4.60;;
49728;SDS011;66333;49.798;10.968;2024-01-30T06:58:38;7.23;;;4.27;;
49728;SDS011;66333;49.798;10.968;2024-01-30T07:01:07;9.77;;;4.93;;
49728;SDS011;66333;49.798;10.968;2024-01-30T07:03:47;8.87;;;4.47;;
49728;SDS011;66333;49.798;10.968;2024-01-30T07:06:16;8.77;;;4.30;;
49728;SDS011;66333;49.798;10.968;2024-01-30T07:08:46;7.67;;;4.37;;
49728;SDS011;66333;49.798;10.968;2024-01-30T07:11:30;7.13;;;3.93;;
49728;SDS011;66333;49.798;10.968;2024-01-30T07:14:00;8.00;;;4.33;;
49728;SDS011;66333;49.798;10.968;2024-01-30T07:16:31;8.50;;;4.50;;
49728;SDS011;66333;49.798;10.968;2024-01-30T07:18:57;7.90;;;4.17;;
49728;SDS011;66333;49.798;10.968;2024-01-30T07:21:27;7.83;;;4.23;;
49728;SDS011;66333;49.798;10.968;2024-01-30T07:23:59;7.57;;;3.97;;
49728;SDS011;66333;49.798;10.968;2024-01-30T07:26:47;6.70;;;4.27;;
49728;SDS011;66333;49.798;10.968;2024-01-30T07:29:17;8.17;;;4.50;;
49728;SDS011;66333;49.798;10.968;2024-01-30T07:31:48;9.47;;;4.40;;
49728;SDS011;66333;49.798;10.968;2024-01-30T07:34:18;8.30;;;4.40;;
49728;SDS011;66333;49.798;10.968;2024-01-30T07:37:00;7.83;;;4.00;;
49728;SDS011;66333;49.798;10.968;2024-01-30T07:39:42;7.80;;;4.10;;
49728;SDS011;66333;49.798;10.968;2024-01-30T07:42:25;7.83;;;4.33;;
49728;SDS011;66333;49.798;10.968;2024-01-30T07:44:55;8.10;;;4.40;;
49728;SDS011;66333;49.798;10.968;2024-01-30T07:47:25;7.80;;;4.33;;
49728;SDS011;66333;49.798;10.968;2024-01-30T07:49:56;7.93;;;4.00;;
49728;SDS011;66333;49.798;10.968;2024-01-30T07:52:26;9.07;;;4.17;;
49728;SDS011;66333;49.798;10.968;2024-01-30T07:55:07;8.83;;;4.23;;
49728;SDS011;66333;49.798;10.968;2024-01-30T07:57:39;8.13;;;4.60;;
49728;SDS011;66333;49.798;10.968;2024-01-30T08:00:09;8.33;;;5.13;;
49728;SDS011;66333;49.798;10.968;2024-01-30T08:02:39;6.10;;;3.60;;
49728;SDS011;66333;49.798;10.968;2024-01-30T08:05:05;7.27;;;3.90;;
49728;SDS011;66333;49.798;10.968;2024-01-30T08:07:48;7.50;;;4.40;;
49728;SDS011;66333;49.798;10.968;2024-01-30T08:10:19;8.27;;;4.17;;
49728;SDS011;66333;49.798;10.968;2024-01-30T08:12:50;8.00;;;4.20;;
49728;SDS011;66333;49.798;10.968;2024-01-30T08:15:26;7.57;;;4.43;;
49728;SDS011;66333;49.798;10.968;2024-01-30T08:17:56;10.07;;;4.53;;
49728;SDS011;66333;49.798;10.968;2024-01-30T08:20:27;7.60;;;4.33;;
49728;SDS011;66333;49.798;10.968;2024-01-30T08:22:53;7.40;;;4.00;;
49728;SDS011;66333;49.798;10.968;2024-01-30T08:25:27;8.00;;;3.93;;
49728;SDS011;66333;49.798;10.968;2024-01-30T08:30:45;7.93;;;4.07;;
49728;SDS011;66333;49.798;10.968;2024-01-30T08:33:12;7.47;;;4.10;;
49728;SDS011;66333;49.798;10.968;2024-01-30T08:35:43;8.17;;;4.53;;
49728;SDS011;66333;49.798;10.968;2024-01-30T08:38:11;6.13;;;3.73;;
49728;SDS011;66333;49.798;10.968;2024-01-30T08:40:44;7.10;;;4.30;;
49728;SDS011;66333;49.798;10.968;2024-01-30T08:43:16;6.83;;;4.03;;
49728;SDS011;66333;49.798;10.968;2024-01-30T08:45:46;7.20;;;4.00;;
49728;SDS011;66333;49.798;10.968;2024-01-30T08:48:27;7.30;;;3.90;;
49728;SDS011;66333;49.798;10.968;2024-01-30T08:50:56;8.63;;;4.10;;
49728;SDS011;66333;49.798;10.968;2024-01-30T08:53:26;7.37;;;4.47;;
49728;SDS011;66333;49.798;10.968;2024-01-30T08:55:55;7.23;;;4.37;;
49728;SDS011;66333;49.798;10.968;2024-01-30T08:58:28;6.77;;;3.93;;
49728;SDS011;66333;49.798;10.968;2024-01-30T09:01:03;8.20;;;4.30;;
49728;SDS011;66333;49.798;10.968;2024-01-30T09:03:39;7.30;;;3.97;;
49728;SDS011;66333;49.798;10.968;2024-01-30T09:06:11;7.50;;;4.03;;
49728;SDS011;66333;49.798;10.968;2024-01-30T09:08:40;6.93;;;4.13;;
49728;SDS011;66333;49.798;10.968;2024-01-30T09:11:08;7.77;;;4.50;;
49728;SDS011;66333;49.798;10.968;2024-01-30T09:13:52;7.30;;;4.10;;
49728;SDS011;66333;49.798;10.968;2024-01-30T09:16:22;8.27;;;3.70;;
49728;SDS011;66333;49.798;10.968;2024-01-30T09:18:51;7.63;;;3.90;;
49728;SDS011;66333;49.798;10.968;2024-01-30T09:21:24;7.63;;;3.60;;
49728;SDS011;66333;49.798;10.968;2024-01-30T09:23:51;7.13;;;4.10;;
49728;SDS011;66333;49.798;10.968;2024-01-30T09:26:20;6.63;;;4.10;;
49728;SDS011;66333;49.798;10.968;2024-01-30T09:28:52;7.83;;;4.40;;
49728;SDS011;66333;49.798;10.968;2024-01-30T09:31:24;7.23;;;4.30;;
49728;SDS011;66333;49.798;10.968;2024-01-30T09:33:55;7.30;;;4.20;;
49728;SDS011;66333;49.798;10.968;2024-01-30T09:36:23;7.93;;;3.97;;
49728;SDS011;66333;49.798;10.968;2024-01-30T09:38:51;6.83;;;4.00;;
49728;SDS011;66333;49.798;10.968;2024-01-30T09:41:19;6.47;;;3.73;;
49728;SDS011;66333;49.798;10.968;2024-01-30T09:43:49;7.03;;;3.77;;
49728;SDS011;66333;49.798;10.968;2024-01-30T09:46:32;8.13;;;4.10;;
49728;SDS011;66333;49.798;10.968;2024-01-30T09:49:02;7.57;;;4.43;;
49728;SDS011;66333;49.798;10.968;2024-01-30T09:51:33;6.97;;;4.07;;
49728;SDS011;66333;49.798;10.968;2024-01-30T09:54:10;7.07;;;4.10;;
49728;SDS011;66333;49.798;10.968;2024-01-30T09:56:40;6.77;;;4.00;;
49728;SDS011;66333;49.798;10.968;2024-01-30T09:59:08;7.60;;;3.90;;
49728;SDS011;66333;49.798;10.968;2024-01-30T10:01:56;6.33;;;3.90;;
49728;SDS011;66333;49.798;10.968;2024-01-30T10:04:24;7.27;;;3.87;;
49728;SDS011;66333;49.798;10.968;2024-01-30T10:07:01;6.43;;;4.13;;
49728;SDS011;66333;49.798;10.968;2024-01-30T10:09:43;6.50;;;3.87;;
49728;SDS011;66333;49.798;10.968;2024-01-30T10:12:12;7.33;;;4.43;;
49728;SDS011;66333;49.798;10.968;2024-01-30T10:14:40;7.60;;;4.20;;
49728;SDS011;66333;49.798;10.968;2024-01-30T10:17:16;6.67;;;3.90;;
49728;SDS011;66333;49.798;10.968;2024-01-30T10:19:46;6.17;;;3.70;;
49728;SDS011;66333;49.798;10.968;2024-01-30T10:22:17;7.63;;;4.00;;
49728;SDS011;66333;49.798;10.968;2024-01-30T10:24:46;6.50;;;3.77;;
49728;SDS011;66333;49.798;10.968;2024-01-30T10:27:23;7.17;;;4.07;;
49728;SDS011;66333;49.798;10.968;2024-01-30T10:29:56;6.63;;;3.87;;
49728;SDS011;66333;49.798;10.968;2024-01-30T10:32:26;6.70;;;3.93;;
49728;SDS011;66333;49.798;10.968;2024-01-30T10:34:54;6.03;;;3.80;;
49728;SDS011;66333;49.798;10.968;2024-01-30T10:37:25;6.57;;;3.97;;
49728;SDS011;66333;49.798;10.968;2024-01-30T10:39:53;7.80;;;4.30;;
49728;SDS011;66333;49.798;10.968;2024-01-30T10:42:25;6.47;;;3.67;;
49728;SDS011;66333;49.798;10.968;2024-01-30T10:45:00;6.40;;;3.90;;
49728;SDS011;66333;49.798;10.968;2024-01-30T10:47:48;7.20;;;3.92;;
49728;SDS011;66333;49.798;10.968;2024-01-30T10:50:19;6.00;;;3.40;;
49728;SDS011;66333;49.798;10.968;2024-01-30T10:52:50;7.27;;;4.23;;
49728;SDS011;66333;49.798;10.968;2024-01-30T10:55:18;6.80;;;4.00;;
49728;SDS011;66333;49.798;10.968;2024-01-30T10:57:48;5.80;;;3.40;;
49728;SDS011;66333;49.798;10.968;2024-01-30T11:00:16;7.00;;;3.83;;
49728;SDS011;66333;49.798;10.968;2024-01-30T11:02:51;6.30;;;3.70;;
49728;SDS011;66333;49.798;10.968;2024-01-30T11:05:23;7.80;;;3.60;;
49728;SDS011;66333;49.798;10.968;2024-01-30T11:07:53;6.82;;;3.80;;
49728;SDS011;66333;49.798;10.968;2024-01-30T11:10:24;6.57;;;3.77;;
49728;SDS011;66333;49.798;10.968;2024-01-30T11:12:53;7.60;;;4.20;;
49728;SDS011;66333;49.798;10.968;2024-01-30T11:15:24;6.30;;;3.67;;
49728;SDS011;66333;49.798;10.968;2024-01-30T11:17:58;7.50;;;4.07;;
49728;SDS011;66333;49.798;10.968;2024-01-30T11:20:30;6.87;;;3.93;;
49728;SDS011;66333;49.798;10.968;2024-01-30T11:23:02;6.93;;;3.60;;
49728;SDS011;66333;49.798;10.968;2024-01-30T11:25:34;6.77;;;3.60;;
49728;SDS011;66333;49.798;10.968;2024-01-30T11:28:06;5.73;;;3.30;;
49728;SDS011;66333;49.798;10.968;2024-01-30T11:30:43;6.37;;;3.33;;
49728;SDS011;66333;49.798;10.968;2024-01-30T11:33:16;6.60;;;3.73;;
49728;SDS011;66333;49.798;10.968;2024-01-30T11:36:01;5.70;;;3.30;;
49728;SDS011;66333;49.798;10.968;2024-01-30T11:38:33;6.80;;;3.50;;
49728;SDS011;66333;49.798;10.968;2024-01-30T11:41:11;7.27;;;4.00;;
49728;SDS011;66333;49.798;10.968;2024-01-30T11:43:42;5.83;;;3.03;;
49728;SDS011;66333;49.798;10.968;2024-01-30T11:46:24;7.33;;;4.17;;
49728;SDS011;66333;49.798;10.968;2024-01-30T11:51:30;6.88;;;3.85;;
49728;SDS011;66333;49.798;10.968;2024-01-30T11:53:59;5.97;;;3.63;;
49728;SDS011;66333;49.798;10.968;2024-01-30T11:56:28;6.07;;;3.60;;
49728;SDS011;66333;49.798;10.968;2024-01-30T11:58:56;6.40;;;3.80;;
49728;SDS011;66333;49.798;10.968;2024-01-30T12:01:27;7.17;;;4.30;;
49728;SDS011;66333;49.798;10.968;2024-01-30T12:04:21;6.20;;;3.70;;
49728;SDS011;66333;49.798;10.968;2024-01-30T12:06:52;6.00;;;3.63;;
49728;SDS011;66333;49.798;10.968;2024-01-30T12:09:20;5.97;;;3.33;;
49728;SDS011;66333;49.798;10.968;2024-01-30T12:11:50;6.87;;;3.87;;
49728;SDS011;66333;49.798;10.968;2024-01-30T12:14:19;7.87;;;3.97;;
49728;SDS011;66333;49.798;10.968;2024-01-30T12:16:51;6.30;;;3.90;;
49728;SDS011;66333;49.798;10.968;2024-01-30T12:19:35;5.53;;;3.07;;
49728;SDS011;66333;49.798;10.968;2024-01-30T12:22:05;5.43;;;3.20;;
49728;SDS011;66333;49.798;10.968;2024-01-30T12:24:34;5.23;;;2.73;;
49728;SDS011;66333;49.798;10.968;2024-01-30T12:27:03;7.57;;;3.97;;
49728;SDS011;66333;49.798;10.968;2024-01-30T12:29:36;5.27;;;2.70;;
49728;SDS011;66333;49.798;10.968;2024-01-30T12:32:06;5.53;;;3.00;;
49728;SDS011;66333;49.798;10.968;2024-01-30T12:34:43;5.40;;;2.77;;
49728;SDS011;66333;49.798;10.968;2024-01-30T12:37:19;5.90;;;3.23;;
49728;SDS011;66333;49.798;10.968;2024-01-30T12:39:51;5.30;;;3.43;;
49728;SDS011;66333;49.798;10.968;2024-01-30T12:42:20;5.27;;;2.90;;
49728;SDS011;66333;49.798;10.968;2024-01-30T12:44:58;5.70;;;3.30;;
49728;SDS011;66333;49.798;10.968;2024-01-30T12:47:25;6.70;;;3.37;;
49728;SDS011;66333;49.798;10.968;2024-01-30T12:50:00;5.97;;;3.20;;
49728;SDS011;66333;49.798;10.968;2024-01-30T12:52:30;6.05;;;3.55;;
49728;SDS011;66333;49.798;10.968;2024-01-30T12:54:58;5.80;;;3.23;;
49728;SDS011;66333;49.798;10.968;2024-01-30T12:57:31;5.60;;;3.27;;
49728;SDS011;66333;49.798;10.968;2024-01-30T12:59:58;6.37;;;3.20;;
49728;SDS011;66333;49.798;10.968;2024-01-30T13:02:28;6.23;;;3.43;;
49728;SDS011;66333;49.798;10.968;2024-01-30T13:05:14;6.32;;;3.83;;
49728;SDS011;66333;49.798;10.968;2024-01-30T13:07:42;6.37;;;3.43;;
49728;SDS011;66333;49.798;10.968;2024-01-30T13:10:11;5.27;;;3.20;;
49728;SDS011;66333;49.798;10.968;2024-01-30T13:12:52;6.57;;;3.67;;
49728;SDS011;66333;49.798;10.968;2024-01-30T13:15:23;5.80;;;3.40;;
49728;SDS011;66333;49.798;10.968;2024-01-30T13:17:53;6.83;;;3.50;;
49728;SDS011;66333;49.798;10.968;2024-01-30T13:23:11;5.73;;;3.17;;
49728;SDS011;66333;49.798;10.968;2024-01-30T13:25:41;6.33;;;3.20;;
49728;SDS011;66333;49.798;10.968;2024-01-30T13:28:12;5.70;;;3.00;;
49728;SDS011;66333;49.798;10.968;2024-01-30T13:30:46;6.07;;;3.40;;
49728;SDS011;66333;49.798;10.968;2024-01-30T13:33:14;5.40;;;3.00;;
49728;SDS011;66333;49.798;10.968;2024-01-30T13:35:46;5.67;;;3.10;;
49728;SDS011;66333;49.798;10.968;2024-01-30T13:38:14;6.70;;;3.57;;
49728;SDS011;66333;49.798;10.968;2024-01-30T13:40:44;6.73;;;3.40;;
49728;SDS011;66333;49.798;10.968;2024-01-30T13:43:13;6.13;;;3.60;;
49728;SDS011;66333;49.798;10.968;2024-01-30T13:45:42;5.80;;;3.37;;
49728;SDS011;66333;49.798;10.968;2024-01-30T13:48:12;6.23;;;3.77;;
49728;SDS011;66333;49.798;10.968;2024-01-30T13:50:44;7.20;;;3.60;;
49728;SDS011;66333;49.798;10.968;2024-01-30T13:53:11;5.87;;;3.63;;
49728;SDS011;66333;49.798;10.968;2024-01-30T13:55:42;5.53;;;3.33;;
49728;SDS011;66333;49.798;10.968;2024-01-30T13:58:14;6.00;;;2.97;;
49728;SDS011;66333;49.798;10.968;2024-01-30T14:00:44;5.70;;;3.30;;
49728;SDS011;66333;49.798;10.968;2024-01-30T14:03:14;5.67;;;3.13;;
49728;SDS011;66333;49.798;10.968;2024-01-30T14:05:55;5.93;;;3.17;;
49728;SDS011;66333;49.798;10.968;2024-01-30T14:08:26;5.40;;;3.10;;
49728;SDS011;66333;49.798;10.968;2024-01-30T14:10:56;5.90;;;3.07;;
49728;SDS011;66333;49.798;10.968;2024-01-30T14:13:26;5.67;;;2.90;;
49728;SDS011;66333;49.798;10.968;2024-01-30T14:15:56;5.80;;;3.23;;
49728;SDS011;66333;49.798;10.968;2024-01-30T14:18:26;5.80;;;3.03;;
49728;SDS011;66333;49.798;10.968;2024-01-30T14:20:57;5.83;;;3.07;;
49728;SDS011;66333;49.798;10.968;2024-01-30T14:23:28;6.23;;;3.40;;
49728;SDS011;66333;49.798;10.968;2024-01-30T14:25:57;5.97;;;3.10;;
49728;SDS011;66333;49.798;10.968;2024-01-30T14:28:26;5.90;;;3.27;;
49728;SDS011;66333;49.798;10.968;2024-01-30T14:30:57;5.60;;;3.30;;
49728;SDS011;66333;49.798;10.968;2024-01-30T14:33:27;5.90;;;3.47;;
49728;SDS011;66333;49.798;10.968;2024-01-30T14:36:01;6.10;;;3.20;;
49728;SDS011;66333;49.798;10.968;2024-01-30T14:38:33;5.40;;;2.90;;
49728;SDS011;66333;49.798;10.968;2024-01-30T14:41:03;21.90;;;5.00;;
49728;SDS011;66333;49.798;10.968;2024-01-30T14:43:33;13.37;;;4.67;;
49728;SDS011;66333;49.798;10.968;2024-01-30T14:46:02;9.13;;;4.40;;
49728;SDS011;66333;49.798;10.968;2024-01-30T14:48:31;8.57;;;5.10;;
49728;SDS011;66333;49.798;10.968;2024-01-30T14:51:04;9.87;;;5.80;;
49728;SDS011;66333;49.798;10.968;2024-01-30T14:53:31;12.67;;;6.03;;
49728;SDS011;66333;49.798;10.968;2024-01-30T14:56:00;10.57;;;6.10;;
49728;SDS011;66333;49.798;10.968;2024-01-30T14:58:28;10.27;;;5.17;;
49728;SDS011;66333;49.798;10.968;2024-01-30T15:00:58;13.20;;;7.53;;
49728;SDS011;66333;49.798;10.968;2024-01-30T15:03:28;11.67;;;6.80;;
49728;SDS011;66333;49.798;10.968;2024-01-30T15:05:59;10.33;;;7.13;;
49728;SDS011;66333;49.798;10.968;2024-01-30T15:08:40;14.43;;;8.03;;